Oriental Clematis — 9VJT5 — position and weather

sailwx.info

Track history (hours):
 
Tides and Currents Weather Stations Pressure Air Temp Water Temp Dewpoint Dewpoint Depression Visibility Wind Speed Wind Dir Waves Ship Positions

Oriental Clematis

Last reported at 2016-Aug-21 19:29 UTC. Time now 2016-Aug-27 22:16 UTC.
Position N 01°15' E 104°07'.

Length 134 m; draft 7.7 m.

Type: Ship (hazmat cat C). MMSI: 565157000.

Date/timePositionNaut miles runAvg speedWind from/ knotsBaromVisibWave heightAir tempDewpointWater temp
2016-Aug-21 19:29N 01°15' E 104°07'1111.7
2016-Aug-21 18:33N 01°13' E 103°56'1111.3
2016-Aug-21 17:33N 01°08' E 103°46'  
2016-Aug-16 04:33N 01°48' E 102°37'7111.4
2016-Aug-15 22:19N 01°12' E 103°39'1 0.0
2016-Aug-14 15:19N 01°13' E 103°39'0 0.1
2016-Aug-14 14:04N 01°13' E 103°39'0 0.1
2016-Aug-14 13:28N 01°13' E 103°39'0 0.1
2016-Aug-14 12:19N 01°13' E 103°39'0 0.0
2016-Aug-14 11:28N 01°13' E 103°39'0 0.1
2016-Aug-14 10:28N 01°13' E 103°39'2 2.3
2016-Aug-14 09:28N 01°11' E 103°40'7 6.5
2016-Aug-14 08:21N 01°10' E 103°47'1012.3
2016-Aug-14 07:33N 01°14' E 103°56'1110.4
2016-Aug-14 06:32N 01°19' E 104°05'13 6.6
2016-Aug-14 04:33N 01°26' E 103°54'0 0.0
2016-Aug-14 01:10N 01°26' E 103°54'0 0.0
2016-Aug-14 00:16N 01°26' E 103°54'0 0.0
2016-Aug-13 23:28N 01°26' E 103°54'0 0.0
2016-Aug-13 22:28N 01°26' E 103°54'0 0.0
2016-Aug-13 21:10N 01°26' E 103°54'0 0.0
2016-Aug-13 18:10N 01°26' E 103°54'0 0.0
2016-Aug-13 17:25N 01°26' E 103°54'0 0.0
2016-Aug-13 16:22N 01°26' E 103°54'0 0.0
2016-Aug-13 14:33N 01°26' E 103°54'6 5.8
2016-Aug-13 13:33N 01°24' E 103°60'8 7.9
2016-Aug-13 12:33N 01°19' E 104°06'1 0.5
2016-Aug-13 10:30N 01°19' E 104°07'0 0.0
2016-Aug-12 20:24N 01°19' E 104°07'  
Track history (hours):
 
Tides and Currents Weather Stations Pressure Air Temp Water Temp Dewpoint Dewpoint Depression Visibility Wind Speed Wind Dir Waves Ship Positions

Oriental Clematis

Last reported at 2016-Aug-21 19:29 UTC. Time now 2016-Aug-27 22:16 UTC.
Position N 01°15' E 104°07'.

Length 134 m; draft 7.7 m.

Type: Ship (hazmat cat C). MMSI: 565157000.

Date/timePositionNaut miles runAvg speedWind from/ knotsBaromVisibWave heightAir tempDewpointWater temp
2016-Aug-21 19:29N 01°15' E 104°07'1111.7
2016-Aug-21 18:33N 01°13' E 103°56'1111.3
2016-Aug-21 17:33N 01°08' E 103°46'  
2016-Aug-16 04:33N 01°48' E 102°37'7111.4
2016-Aug-15 22:19N 01°12' E 103°39'1 0.0
2016-Aug-14 15:19N 01°13' E 103°39'0 0.1
2016-Aug-14 14:04N 01°13' E 103°39'0 0.1
2016-Aug-14 13:28N 01°13' E 103°39'0 0.1
2016-Aug-14 12:19N 01°13' E 103°39'0 0.0
2016-Aug-14 11:28N 01°13' E 103°39'0 0.1
2016-Aug-14 10:28N 01°13' E 103°39'2 2.3
2016-Aug-14 09:28N 01°11' E 103°40'7 6.5
2016-Aug-14 08:21N 01°10' E 103°47'1012.3
2016-Aug-14 07:33N 01°14' E 103°56'1110.4
2016-Aug-14 06:32N 01°19' E 104°05'13 6.6
2016-Aug-14 04:33N 01°26' E 103°54'0 0.0
2016-Aug-14 01:10N 01°26' E 103°54'0 0.0
2016-Aug-14 00:16N 01°26' E 103°54'0 0.0
2016-Aug-13 23:28N 01°26' E 103°54'0 0.0
2016-Aug-13 22:28N 01°26' E 103°54'0 0.0
2016-Aug-13 21:10N 01°26' E 103°54'0 0.0
2016-Aug-13 18:10N 01°26' E 103°54'0 0.0
2016-Aug-13 17:25N 01°26' E 103°54'0 0.0
2016-Aug-13 16:22N 01°26' E 103°54'0 0.0
2016-Aug-13 14:33N 01°26' E 103°54'6 5.8
2016-Aug-13 13:33N 01°24' E 103°60'8 7.9
2016-Aug-13 12:33N 01°19' E 104°06'1 0.5
2016-Aug-13 10:30N 01°19' E 104°07'0 0.0
2016-Aug-12 20:24N 01°19' E 104°07'  

Dump ship's entire track history